Flight Track Log - Related Links

Times and Time Zones

All times are in EDT time to prevent confusion due to time zone crossing. See the UPS2194 flight status page for this flight to view local times or setup timezone preferences in your user account.

Time Position Orientation Groundspeed Altitude Reporting Facility
EDT Latitude Longitude Course Direction KTS MPH feet Rate Location/Type
Mon 04:47:23 PM 38.1264 -85.7316 179° South 218 251 2,700  Level FlightAware ADS-B
Mon 04:48:21 PM 38.0734 -85.6877 105° East 293 337 6,300 2,600 Climbing FlightAware ADS-B
Mon 04:50:23 PM 38.0735 -85.4608 90° East 342 394 10,500 2,308 Climbing FlightAware ADS-B
Mon 04:51:23 PM 38.0856 -85.3260 82° East 406 467 13,300 2,813 Climbing FlightAware ADS-B
Mon 04:52:31 PM 38.1038 -85.1546 90° East 463 533 16,500 1,969 Climbing FlightAware ADS-B
Mon 04:53:31 PM 38.0945 -84.9951 95° East 473 544 17,500 1,800 Climbing FlightAware ADS-B
Mon 04:54:31 PM 38.0833 -84.8253 95° East 505 581 20,100 2,463 Climbing FlightAware ADS-B
Mon 04:55:06 PM 38.0801 -84.7777 95° East 527 606 21,400 2,703 Climbing FlightAware ADS-B (KCVG)
Mon 04:56:02 PM 38.0653 -84.5548 95° East 537 618 24,200 2,442 Climbing FlightAware ADS-B (KCVG)
Mon 04:56:32 PM 38.0589 -84.4758 95° East 531 611 24,900 1,891 Climbing Indianapolis Center
Mon 04:57:34 PM 38.0450 -84.2797 95° East 547 629 27,100 1,754 Climbing Indianapolis Center
Mon 05:03:26 PM 38.0653 -84.5548 96° East 522 601 37,000 1,372 Climbing FlightAware ADS-B
Mon 05:04:47 PM 37.9431 -82.9317 96° East 522 601 37,000  Level Indianapolis Center
Mon 05:05:48 PM 37.9253 -82.7161 96° East 523 602 37,000  Level Indianapolis Center
Mon 05:06:50 PM 37.9089 -82.5322 96° East 523 602 37,000  Level Indianapolis Center
Mon 05:07:52 PM 37.8936 -82.3497 96° East 523 602 37,000  Level Indianapolis Center
Mon 05:08:54 PM 37.8775 -82.1722 97° East 515 593 37,000  Level Indianapolis Center
Mon 05:09:56 PM 37.8608 -81.9753 96° East 510 587 37,000 48 Level Indianapolis Center
Mon 05:10:58 PM 37.8436 -81.7978 97° East 510 587 37,100  Climbing Indianapolis Center
Mon 05:11:59 PM 37.8289 -81.6372 97° East 510 587 37,000 -49 Descending Indianapolis Center
Mon 05:13:01 PM 37.8103 -81.4489 97° East 510 587 37,000  Level Indianapolis Center
Mon 05:14:03 PM 37.7939 -81.2764 97° East 508 585 37,000  Level Indianapolis Center
Mon 05:15:05 PM 37.7789 -81.0711 95° East 508 585 37,000  Level Indianapolis Center
Mon 05:16:07 PM 37.8083 -80.8972 78° East 517 595 37,000  Level Indianapolis Center
Mon 05:17:09 PM 37.8767 -80.7117 65° Northeast 530 610 37,000 -168 Level Indianapolis Center
Mon 05:17:54 PM 37.9172 -80.5981 66° East 527 606 36,700 -673 Descending Washington Center
Mon 05:18:56 PM 37.9539 -80.4267 75° East 525 604 35,800 -816 Descending Washington Center
Mon 05:19:59 PM 37.9619 -80.2106 87° East 521 600 35,000 -726 Descending Washington Center
Mon 05:21:00 PM 37.9533 -80.0311 93° East 524 603 34,300 -816 Descending Washington Center
Mon 05:22:04 PM 37.9425 -79.8492 94° East 528 608 33,300 -184 Descending Washington Center
Mon 05:28:04 PM 37.9495 -78.7010 82° East 534 615 33,000 -45 Descending FlightAware ADS-B (KCHO)
Mon 05:28:45 PM 37.9641 -78.5777 82° East 533 613 33,000  Level FlightAware ADS-B (KCHO)
Mon 05:29:25 PM 37.9789 -78.4512 82° East 534 615 33,000 -169 Level FlightAware ADS-B (KCHO)
Mon 05:29:56 PM 37.9885 -78.3710 82° East 533 613 32,800 -689 Descending FlightAware ADS-B (KCHO)
Mon 05:30:26 PM 38.0004 -78.2664 82° East 530 610 32,300 -885 Descending FlightAware ADS-B (KCHO)
Mon 05:30:57 PM 38.0180 -78.1726 72° East 530 610 31,900 -857 Descending FlightAware ADS-B (KCHO)
Mon 05:31:36 PM 38.0592 -78.0638 58° Northeast 530 610 31,300 -930 Descending FlightAware ADS-B (KCHO)
Mon 05:32:08 PM 38.0928 -77.9955 58° Northeast 532 612 30,800 -941 Descending FlightAware ADS-B (KCHO)
Mon 05:32:27 PM 38.1218 -77.9374 58° Northeast 532 612 30,500 -840 Descending FlightAware ADS-B (KDAA)
Mon 05:32:58 PM 38.1667 -77.8471 58° Northeast 532 612 30,100 -847 Descending FlightAware ADS-B (KDAA)
Mon 05:33:52 PM 38.2386 -77.7013 57° Northeast 535 616 29,300 -653 Descending FlightAware ADS-B (KDAA)
Mon 05:34:39 PM 38.2882 -77.6023 57° Northeast 537 618 29,000 -225 Descending FlightAware ADS-B (KDAA)
Mon 05:35:12 PM 38.3321 -77.5144 57° Northeast 535 616 29,000  Level FlightAware ADS-B (KDAA)
Mon 05:35:37 PM 38.3504 -77.4768 58° Northeast 533 613 29,000  Level FlightAware ADS-B (KDAA)
Mon 05:36:12 PM 38.4223 -77.3304 58° Northeast 532 612 29,000  Level FlightAware ADS-B (KDAA)
Mon 05:36:41 PM 38.4365 -77.3009 58° Northeast 535 616 29,000  Level FlightAware ADS-B (KDAA)
Mon 05:37:12 PM 38.4988 -77.1719 58° Northeast 536 617 29,000  Level FlightAware ADS-B (KDAA)
Mon 05:37:13 PM 38.5029 -77.1640 58° Northeast 537 618 29,000 -514 Level FlightAware ADS-B
Mon 05:37:47 PM 38.5468 -77.0750 58° Northeast 536 617 28,700 -1,619 Descending FlightAware ADS-B (KDAA)
Mon 05:38:16 PM 38.5844 -76.9974 59° Northeast 531 611 27,300 -3,000 Descending FlightAware ADS-B
Mon 05:38:17 PM 38.5846 -76.9948 58° Northeast 531 611 27,200 -2,710 Descending FlightAware ADS-B (KDAA)
Mon 05:38:47 PM 38.6235 -76.9149 58° Northeast 521 600 25,900 -2,786 Descending FlightAware ADS-B (KDAA)
Mon 05:39:13 PM 38.6437 -76.8732 59° Northeast 516 594 24,600 -2,800 Descending FlightAware ADS-B
Mon 05:39:17 PM 38.6586 -76.8423 58° Northeast 513 590 24,500 -1,059 Descending FlightAware ADS-B (KDAA)
Mon 05:39:47 PM 38.6951 -76.7614 62° Northeast 509 586 24,000 -600 Descending FlightAware ADS-B (KDAA)
Mon 05:40:17 PM 38.7205 -76.6720 75° East 491 565 23,900 -1,200 Descending FlightAware ADS-B
Mon 05:40:47 PM 38.7347 -76.6027 75° East 480 552 22,800 -2,129 Descending FlightAware ADS-B (KDAA)
Mon 05:40:48 PM 38.7352 -76.6001 75° East 480 552 22,800 -1,780 Level FlightAware ADS-B
Mon 05:42:18 PM 38.7897 -76.3427 75° East 472 543 20,100 -1,676 Descending FlightAware ADS-B (KDAA)
Mon 05:47:29 PM 39.1040 -75.6733 North 354 407 11,600 -1,433 Descending FlightAware ADS-B (KWWD)
Mon 05:49:04 PM 39.2455 -75.6574 North 295 339 10,400 -567 Descending FlightAware ADS-B (KWWD)
Mon 05:50:29 PM 39.3358 -75.6080 North 295 339 9,900 -462 Descending FlightAware ADS-B
Mon 05:51:14 PM 39.3883 -75.5562 53° Northeast 319 367 9,400 -667 Descending FlightAware ADS-B (KPHL)
Mon 05:51:32 PM 39.3976 -75.5328 71° East 317 365 9,200 -766 Descending FlightAware ADS-B (KPHL)
Mon 05:52:01 PM 39.4146 -75.4744 68° East 317 365 8,800 -800 Descending FlightAware ADS-B
Mon 05:52:17 PM 39.4235 -75.4460 68° East 318 366 8,600 -857 Descending FlightAware ADS-B (KPHL)
Mon 05:52:43 PM 39.4276 -75.4320 69° East 311 358 8,200 -783 Descending FlightAware ADS-B
Mon 05:53:03 PM 39.4475 -75.3655 69° East 308 354 8,000 -1,105 Descending FlightAware ADS-B
Mon 05:53:21 PM 39.4677 -75.3085 55° Northeast 313 360 7,500 -882 Descending FlightAware ADS-B (KWWD)
Mon 05:53:37 PM 39.4673 -75.3084 54° Northeast 313 360 7,500 -474 Level FlightAware ADS-B
Mon 05:53:59 PM 39.4890 -75.2801 41° Northeast 311 358 7,200 -698 Descending FlightAware ADS-B
Mon 05:54:20 PM 39.5114 -75.2540 43° Northeast 309 356 7,000 -160 Descending FlightAware ADS-B
Mon 05:55:14 PM 39.5678 -75.1825 45° Northeast 310 357 7,000  Level FlightAware ADS-B (KPHL)
Mon 05:56:15 PM 39.6311 -75.1044 44° Northeast 311 358 7,000  Level FlightAware ADS-B (KPHL)
Mon 05:56:46 PM 39.6372 -75.0980 14° North 306 352 7,000 -211 Level FlightAware ADS-B (KPHL)
Mon 05:57:12 PM 39.6946 -75.0749 353° North 287 330 6,800 -533 Descending FlightAware ADS-B (KPHL)
Mon 05:57:31 PM 39.7295 -75.0794 357° North 283 326 6,600 -766 Descending FlightAware ADS-B (KPHL)
Mon 05:57:59 PM 39.7650 -75.0820 356° North 263 303 6,200 -900 Descending FlightAware ADS-B (KPHL)
Mon 05:58:11 PM 39.7977 -75.0771 13° North 253 291 6,000 -387 Descending FlightAware ADS-B (KWWD)
Mon 05:58:30 PM 39.7650 -75.0820 30° Northeast 256 295 6,000  Level FlightAware ADS-B (KPHL)
Mon 05:59:36 PM 39.8218 -75.0060 77° East 234 269 6,000  Level FlightAware ADS-B (KPHL)
Mon 06:00:12 PM 39.8338 -74.9401 76° East 235 270 6,000  Level FlightAware ADS-B (KPHL)
Mon 06:01:00 PM 39.8471 -74.8743 75° East 231 266 6,000 -226 Level FlightAware ADS-B (KPHL)
Mon 06:01:58 PM 39.8684 -74.7741 70° East 234 269 5,600 -462 Descending FlightAware ADS-B (KWWD)
Mon 06:02:05 PM 39.8722 -74.7671 32° Northeast 231 266 5,500 -756 Descending FlightAware ADS-B (KWWD)
Mon 06:03:57 PM 39.9532 -74.8199 32° Northeast 231 266 4,100 -536 Descending FlightAware ADS-B (KWWD)
Mon 06:09:55 PM 39.9369 -74.7828 325° Northwest 200 230 1,300 -531 Descending FlightAware ADS-B (KPHL)
Mon 06:10:55 PM 39.8833 -75.2000 325° Northwest 156 180 400 -900 Descending Philadelphia TRACON
Mon 06:13:00 PM 39.8667 -75.2333 281° West  Level FlightAware Approximate
Mon 06:20:00 PM 39.8722 -75.2409 281° West  Level Estimated
Mon 06:21:00 PM 39.8722 -75.2409 95° East  Level Estimated
Mon 06:22:00 PM 39.8722 -75.2409 270° West  Level Estimated

Login

Don't have an account? Register now (free) for customized features, flight alerts, and more!